METAR AND TAF INFORMATION
METAR FOR KLTS
ADDS - METARS form results

(0844 UTC 16 December 2019)
Data provider http://aviationweather.gov/metar/data/
 
METAR text: KLTS 160826Z AUTO 01011KT 10SM OVC009 00/M03 A2998 RMK AO2 SLP159 $
Conditions at: KLTS (ALTUS AFB , OK, US) observed 0826 UTC 16 December 2019
Temperature: 0.0°C (32°F)
Dewpoint: -3.0°C (27°F) [RH = 80%]
Pressure (altimeter): 29.98 inches Hg (1015.3 mb)
[Sea-level pressure: 1015.9 mb]
Winds: from the N (10 degrees) at 13 MPH (11 knots; 5.7 m/s)
Visibility: 10 or more miles (16+ km)
Ceiling: 900 feet AGL
Clouds: overcast cloud deck at 900 feet AGL
Weather:
SOME DATA ABOVE MAY BE INACCURATE!!!
"$" is an indication the sensor requires maintenance

METAR text: KLTS 160756Z 01010KT 10SM OVC011 00/M03 A2997 RMK AO2A CIG 010 RWY17L CIG 010 RWY35R SLP157 T00001032 $
Conditions at: KLTS (ALTUS AFB , OK, US) observed 0756 UTC 16 December 2019
Temperature: 0.0°C (32°F)
Dewpoint: -3.2°C (26°F) [RH = 79%]
Pressure (altimeter): 29.97 inches Hg (1015.0 mb)
[Sea-level pressure: 1015.7 mb]
Winds: from the N (10 degrees) at 12 MPH (10 knots; 5.1 m/s)
Visibility: 10 or more miles (16+ km)
Ceiling: 1100 feet AGL
Clouds: overcast cloud deck at 1100 feet AGL
Weather:
SOME DATA ABOVE MAY BE INACCURATE!!!
"$" is an indication the sensor requires maintenance

 AIRPORT MAP

 RUNWAY INFORMATION
Runway 17 Runway length 3501 ft Runway width 94 ft
Runway elevation 1379 ft Runway displaced threshold 0 ft Runway heading 180
Runway 35 Runway length 3501 ft Runway width 94 ft
Runway elevation 1364 ft Runway displaced threshold 0 ft Runway heading 360
Runway 174 Runway length 3501 ft Runway width 94 ft
Runway elevation 0 ft Runway displaced threshold 0 ft Runway heading 0
Runway 354 Runway length 3501 ft Runway width 94 ft
Runway elevation 0 ft Runway displaced threshold 0 ft Runway heading 0
Runway 17L Runway length 9000 ft Runway width 150 ft
Runway elevation 1382 ft Runway displaced threshold 0 ft Runway heading 180
Runway 35R Runway length 9000 ft Runway width 150 ft
Runway elevation 1354 ft Runway displaced threshold 0 ft Runway heading 360
Runway 17R Runway length 13440 ft Runway width 150 ft
Runway elevation 1379 ft Runway displaced threshold 0 ft Runway heading 180
Runway 35L Runway length 13440 ft Runway width 150 ft
Runway elevation 1346 ft Runway displaced threshold 0 ft Runway heading 360

 AIRPORT FREQUENCIES
Type APP Name APP Frequency 125.1 MHZ
Type ATIS Name ATIS Frequency 27.35 MHZ
Type CLD Name CLNC DEL Frequency 120.65 MHZ
Type DEP Name DEP Frequency 125.1 MHZ
Type GND Name GND Frequency 121.85 MHZ
Type PMSV Name PMSV METRO Frequency 23.98 MHZ
Type POST Name COMD POST Frequency 31.1 MHZ
Type PTD Name PTD Frequency 37.22 MHZ
Type TWR Name TWR Frequency 119.65 MHZ

 AIRPORT NEAR NAVIGATION AIDS
Type VORTAC Name Altus Frequency 109800 KHZ